createdAt,value
2022-11-05T00:01:03.152Z,90.70
2022-11-05T00:02:24.135Z,90.77
2022-11-05T00:03:44.708Z,90.92
2022-11-05T00:05:05.747Z,91.18
2022-11-05T00:06:29.039Z,91.01
2022-11-05T00:07:58.375Z,91.12
2022-11-05T00:09:18.763Z,90.78
2022-11-05T00:10:24.268Z,90.91
2022-11-05T00:11:46.858Z,91.04
2022-11-05T00:13:07.858Z,90.95
2022-11-05T00:14:29.048Z,90.60
2022-11-05T00:15:49.830Z,90.74
2022-11-05T00:16:52.087Z,90.83
2022-11-05T00:17:54.251Z,90.98
2022-11-05T00:19:09.230Z,90.89
2022-11-05T00:20:13.648Z,90.88
2022-11-05T00:21:34.106Z,90.81
2022-11-05T00:22:55.041Z,90.34
2022-11-05T00:24:20.405Z,90.30
2022-11-05T00:25:25.486Z,90.47
2022-11-05T00:26:27.647Z,90.50
2022-11-05T00:27:35.579Z,90.21
2022-11-05T00:28:43.723Z,90.06
2022-11-05T00:29:46.128Z,90.22
2022-11-05T00:30:48.880Z,90.33
2022-11-05T00:31:51.064Z,90.29
2022-11-05T00:32:53.496Z,90.42
2022-11-05T00:33:58.706Z,90.65
2022-11-05T00:35:01.290Z,90.73
2022-11-05T00:36:07.812Z,90.60
2022-11-05T00:37:09.970Z,90.56
2022-11-05T00:38:13.130Z,90.51
2022-11-05T00:39:15.537Z,90.54
2022-11-05T00:40:18.028Z,90.79
2022-11-05T00:41:20.748Z,90.64
2022-11-05T00:42:41.383Z,90.38
2022-11-05T00:44:02.766Z,90.37
2022-11-05T00:45:07.405Z,90.29
2022-11-05T00:46:10.098Z,90.36
2022-11-05T00:47:50.927Z,90.07
2022-11-05T00:49:11.492Z,89.77
2022-11-05T00:50:14.229Z,89.57
2022-11-05T00:51:19.777Z,89.49
2022-11-05T00:52:40.836Z,89.77
2022-11-05T00:53:43.214Z,89.52
2022-11-05T00:54:45.388Z,89.57
2022-11-05T00:55:51.021Z,89.58
2022-11-05T00:56:53.429Z,89.69
2022-11-05T00:57:57.324Z,89.88
2022-11-05T00:58:59.696Z,89.97
2022-11-05T01:00:01.878Z,90.20
2022-11-05T01:01:04.527Z,90.30
2022-11-05T01:02:07.098Z,90.56
2022-11-05T01:03:12.352Z,90.40
2022-11-05T01:04:14.755Z,90.40
2022-11-05T01:05:17.334Z,90.57
2022-11-05T01:06:19.503Z,90.70
2022-11-05T01:07:21.866Z,90.67
2022-11-05T01:08:26.351Z,90.62
2022-11-05T01:09:28.542Z,90.72
2022-11-05T01:10:30.739Z,90.70
2022-11-05T01:11:33.514Z,90.67
2022-11-05T01:12:39.027Z,90.60
2022-11-05T01:13:41.353Z,90.38
2022-11-05T01:14:44.720Z,90.41
2022-11-05T01:15:50.976Z,90.43
2022-11-05T01:16:53.598Z,90.88
2022-11-05T01:17:56.940Z,91.04
2022-11-05T01:19:00.702Z,91.06
2022-11-05T01:20:05.354Z,91.02
2022-11-05T01:21:15.764Z,90.90
2022-11-05T01:22:18.156Z,90.85
2022-11-05T01:23:21.122Z,90.77
2022-11-05T01:24:23.800Z,90.79
2022-11-05T01:25:26.438Z,90.76
2022-11-05T01:26:31.612Z,91.10
2022-11-05T01:27:33.998Z,91.38
2022-11-05T01:28:39.206Z,91.46
2022-11-05T01:29:42.271Z,91.30
2022-11-05T01:30:55.960Z,91.26
2022-11-05T01:31:58.518Z,91.38
2022-11-05T01:33:00.700Z,91.16
2022-11-05T01:34:03.103Z,91.23
2022-11-05T01:35:07.203Z,91.54
2022-11-05T01:36:09.633Z,91.42
2022-11-05T01:37:12.056Z,91.16
2022-11-05T01:38:14.230Z,91.09
2022-11-05T01:39:19.759Z,91.00
2022-11-05T01:40:24.047Z,90.97
2022-11-05T01:41:26.196Z,90.92
2022-11-05T01:42:32.908Z,91.02
2022-11-05T01:43:54.602Z,90.95
2022-11-05T01:45:19.822Z,90.84
2022-11-05T01:46:36.553Z,90.96
2022-11-05T01:47:47.818Z,91.03
2022-11-05T01:48:56.156Z,91.06
2022-11-05T01:50:03.509Z,91.06
2022-11-05T01:51:12.021Z,90.71
2022-11-05T01:52:14.398Z,90.51
2022-11-05T01:53:25.638Z,90.26
2022-11-05T01:54:32.066Z,90.46
2022-11-05T01:55:41.728Z,90.42
2022-11-05T01:56:53.622Z,90.97
2022-11-05T01:57:59.025Z,91.15
2022-11-05T01:59:25.767Z,91.00
2022-11-05T02:00:28.055Z,90.77
2022-11-05T02:01:30.430Z,91.07
2022-11-05T02:02:33.080Z,91.11
2022-11-05T02:03:36.253Z,91.30
2022-11-05T02:04:44.724Z,91.52
2022-11-05T02:05:50.000Z,91.63
2022-11-05T02:06:53.167Z,91.71
2022-11-05T02:07:56.036Z,91.67
2022-11-05T02:09:13.097Z,91.60
2022-11-05T02:10:20.559Z,91.49
2022-11-05T02:11:23.726Z,91.27
2022-11-05T02:12:28.932Z,91.07
2022-11-05T02:13:31.304Z,91.13
2022-11-05T02:14:34.420Z,90.74
2022-11-05T02:15:51.800Z,90.64
2022-11-05T02:17:26.765Z,91.10
2022-11-05T02:19:07.907Z,91.41
2022-11-05T02:20:26.181Z,91.54
2022-11-05T02:21:31.389Z,91.35
2022-11-05T02:22:46.648Z,91.46
2022-11-05T02:24:07.322Z,91.33
2022-11-05T02:25:34.135Z,91.20
2022-11-05T02:27:05.051Z,91.39
2022-11-05T02:28:26.866Z,91.37
2022-11-05T02:29:35.023Z,91.49
2022-11-05T02:31:18.902Z,92.10
2022-11-05T02:32:32.706Z,92.05
2022-11-05T02:34:19.557Z,92.27
2022-11-05T02:35:58.970Z,92.46
2022-11-05T02:37:22.319Z,92.47
2022-11-05T02:38:48.877Z,92.42
2022-11-05T02:39:59.048Z,92.63
2022-11-05T02:41:19.154Z,92.67
2022-11-05T02:42:42.478Z,92.71
2022-11-05T02:44:00.683Z,92.69
2022-11-05T02:45:05.549Z,92.71
2022-11-05T02:46:41.742Z,92.70
2022-11-05T02:48:11.141Z,92.60
2022-11-05T02:49:19.097Z,92.19
2022-11-05T02:50:39.909Z,91.93
2022-11-05T02:51:44.951Z,91.84
2022-11-05T02:53:10.259Z,91.75
2022-11-05T02:54:48.059Z,92.06
2022-11-05T02:55:59.481Z,92.20
2022-11-05T02:57:03.683Z,92.30
2022-11-05T02:58:06.989Z,92.44
2022-11-05T02:59:09.231Z,92.54
2022-11-05T03:00:39.544Z,92.39
2022-11-05T03:01:44.082Z,92.45
2022-11-05T03:02:46.599Z,92.57
2022-11-05T03:03:53.847Z,92.64
2022-11-05T03:04:56.109Z,92.62
2022-11-05T03:06:16.791Z,92.64
2022-11-05T03:07:55.081Z,92.79
2022-11-05T03:09:22.035Z,92.64
2022-11-05T03:10:35.502Z,92.57
2022-11-05T03:12:16.249Z,92.61
2022-11-05T03:13:41.589Z,92.48
2022-11-05T03:15:07.165Z,92.24
2022-11-05T03:16:20.890Z,92.36
2022-11-05T03:18:00.395Z,92.50
2022-11-05T03:19:35.030Z,92.83
2022-11-05T03:20:39.868Z,93.18
2022-11-05T03:21:48.984Z,92.88
2022-11-05T03:23:05.000Z,92.74
2022-11-05T03:24:26.563Z,92.75
2022-11-05T03:25:30.691Z,92.62
2022-11-05T03:26:45.629Z,92.95
2022-11-05T03:27:54.113Z,92.97
2022-11-05T03:29:06.635Z,92.77
2022-11-05T03:30:18.661Z,92.78
2022-11-05T03:31:23.531Z,92.80
2022-11-05T03:32:28.614Z,92.68
2022-11-05T03:33:35.413Z,92.54
2022-11-05T03:34:47.814Z,92.34
2022-11-05T03:35:56.645Z,92.47
2022-11-05T03:37:00.862Z,92.62
2022-11-05T03:38:08.035Z,92.84
2022-11-05T03:39:15.748Z,92.71
2022-11-05T03:40:21.540Z,92.34
2022-11-05T03:41:25.329Z,92.47
2022-11-05T03:42:32.681Z,92.59
2022-11-05T03:43:40.333Z,92.67
2022-11-05T03:44:48.054Z,92.26
2022-11-05T03:46:02.350Z,92.27
2022-11-05T03:47:09.306Z,92.01
2022-11-05T03:48:16.124Z,92.35
2022-11-05T03:49:30.739Z,92.46
2022-11-05T03:50:45.206Z,92.41
2022-11-05T03:52:16.343Z,92.41
2022-11-05T03:53:26.085Z,92.49
2022-11-05T03:54:32.590Z,92.32
2022-11-05T03:56:06.703Z,92.22
2022-11-05T03:57:10.733Z,92.19
2022-11-05T03:58:17.498Z,92.13
2022-11-05T03:59:20.449Z,92.27
2022-11-05T04:00:23.432Z,92.35
2022-11-05T04:01:26.107Z,92.22
2022-11-05T04:02:31.776Z,91.95
2022-11-05T04:03:36.547Z,91.94
2022-11-05T04:04:39.500Z,92.04
2022-11-05T04:05:41.754Z,91.95
2022-11-05T04:07:02.403Z,92.16
2022-11-05T04:08:25.805Z,92.13
2022-11-05T04:09:46.347Z,91.98
2022-11-05T04:11:07.070Z,91.96
2022-11-05T04:12:31.011Z,91.84
2022-11-05T04:13:33.635Z,92.09
2022-11-05T04:14:36.098Z,92.13
2022-11-05T04:15:57.124Z,92.23
2022-11-05T04:17:17.322Z,91.87
2022-11-05T04:18:19.602Z,91.86
2022-11-05T04:19:41.849Z,92.07
2022-11-05T04:21:03.214Z,91.87
2022-11-05T04:22:24.476Z,92.12
2022-11-05T04:23:45.743Z,92.19
2022-11-05T04:24:47.913Z,92.09
2022-11-05T04:25:50.564Z,92.29
2022-11-05T04:26:52.899Z,92.59
2022-11-05T04:27:58.890Z,92.58
2022-11-05T04:29:19.946Z,92.41
2022-11-05T04:30:22.767Z,92.51
2022-11-05T04:31:25.086Z,92.62
2022-11-05T04:32:27.443Z,92.53
2022-11-05T04:33:29.595Z,92.51
2022-11-05T04:34:31.960Z,92.33
2022-11-05T04:35:39.920Z,92.08
2022-11-05T04:36:43.015Z,92.07
2022-11-05T04:37:45.342Z,92.27
2022-11-05T04:38:47.678Z,92.26
2022-11-05T04:39:50.047Z,92.13
2022-11-05T04:40:54.672Z,92.08
2022-11-05T04:41:59.977Z,92.15
2022-11-05T04:43:02.278Z,92.06
2022-11-05T04:44:04.741Z,91.92
2022-11-05T04:45:07.832Z,91.80
2022-11-05T04:46:10.363Z,91.49
2022-11-05T04:47:12.634Z,91.36
2022-11-05T04:48:14.950Z,91.51
2022-11-05T04:49:17.126Z,91.62
2022-11-05T04:50:20.093Z,91.77
2022-11-05T04:51:22.374Z,91.63
2022-11-05T04:52:24.549Z,91.43
2022-11-05T04:53:26.887Z,91.50
2022-11-05T04:54:29.279Z,91.75
2022-11-05T04:55:31.635Z,91.73
2022-11-05T04:56:33.892Z,91.62
2022-11-05T04:57:36.454Z,91.64
2022-11-05T04:58:40.653Z,91.45
2022-11-05T04:59:43.001Z,91.70
2022-11-05T05:00:45.397Z,91.55
2022-11-05T05:01:52.548Z,91.34
2022-11-05T05:02:54.804Z,91.14
2022-11-05T05:03:57.028Z,91.03
2022-11-05T05:04:59.369Z,91.22
2022-11-05T05:06:04.059Z,91.21
2022-11-05T05:07:06.588Z,91.17
2022-11-05T05:08:09.140Z,90.94
2022-11-05T05:09:11.332Z,91.05
2022-11-05T05:10:13.938Z,91.08
2022-11-05T05:11:18.375Z,91.28
2022-11-05T05:12:23.330Z,91.24
2022-11-05T05:13:25.677Z,91.21
2022-11-05T05:14:28.893Z,91.15
2022-11-05T05:15:31.850Z,91.40
2022-11-05T05:16:34.135Z,91.34
2022-11-05T05:17:36.766Z,91.36
2022-11-05T05:18:42.207Z,91.27
2022-11-05T05:20:08.563Z,90.86
2022-11-05T05:21:29.938Z,91.07
2022-11-05T05:22:32.099Z,91.33
2022-11-05T05:23:34.485Z,90.61
2022-11-05T05:24:39.574Z,90.64
2022-11-05T05:25:41.900Z,90.55
2022-11-05T05:26:46.876Z,90.95
2022-11-05T05:27:49.276Z,90.54
2022-11-05T05:28:55.544Z,90.04
2022-11-05T05:29:59.437Z,89.69
2022-11-05T05:31:02.307Z,90.07
2022-11-05T05:32:06.460Z,89.91
2022-11-05T05:33:10.320Z,89.75
2022-11-05T05:34:14.722Z,89.79
2022-11-05T05:35:17.365Z,89.50
2022-11-05T05:36:21.954Z,89.37
2022-11-05T05:37:26.936Z,89.15
2022-11-05T05:38:30.068Z,89.06
2022-11-05T05:39:35.235Z,88.99
2022-11-05T05:40:37.644Z,89.29
2022-11-05T05:41:42.488Z,89.27
2022-11-05T05:42:45.245Z,89.01
2022-11-05T05:43:48.145Z,89.09
2022-11-05T05:44:50.516Z,88.81
2022-11-05T05:45:52.815Z,88.83
2022-11-05T05:46:55.552Z,88.91
2022-11-05T05:47:57.983Z,88.83
2022-11-05T05:49:00.405Z,88.91
2022-11-05T05:50:02.605Z,88.50
2022-11-05T05:51:10.109Z,88.46
2022-11-05T05:52:12.319Z,88.49
2022-11-05T05:53:14.694Z,88.56
2022-11-05T05:54:17.396Z,88.72
2022-11-05T05:55:19.591Z,88.68
2022-11-05T05:56:21.970Z,88.78
2022-11-05T05:57:24.221Z,88.70
2022-11-05T05:58:30.580Z,88.87
2022-11-05T05:59:33.187Z,88.91
2022-11-05T06:00:36.003Z,88.74
2022-11-05T06:01:38.698Z,88.97
2022-11-05T06:02:41.707Z,88.97
2022-11-05T06:03:44.573Z,89.13
2022-11-05T06:04:46.928Z,88.93
2022-11-05T06:05:49.091Z,88.84
2022-11-05T06:06:51.462Z,88.77
2022-11-05T06:07:57.577Z,88.60
2022-11-05T06:08:59.982Z,88.54
2022-11-05T06:10:02.397Z,88.92
2022-11-05T06:11:05.295Z,89.02
2022-11-05T06:12:07.667Z,89.28
2022-11-05T06:13:12.355Z,88.92
2022-11-05T06:14:14.851Z,89.18
2022-11-05T06:15:20.530Z,89.12
2022-11-05T06:16:22.759Z,89.23
2022-11-05T06:17:25.277Z,89.07
2022-11-05T06:18:29.045Z,88.89
2022-11-05T06:19:33.280Z,88.80
2022-11-05T06:20:37.756Z,88.65
2022-11-05T06:21:40.099Z,88.80
2022-11-05T06:22:42.498Z,88.88
2022-11-05T06:23:46.388Z,89.14
2022-11-05T06:24:49.027Z,89.24
2022-11-05T06:25:51.275Z,89.24
2022-11-05T06:26:53.449Z,89.12
2022-11-05T06:27:58.472Z,89.19
2022-11-05T06:29:00.666Z,89.18
2022-11-05T06:30:04.925Z,89.55
2022-11-05T06:31:07.139Z,89.40
2022-11-05T06:32:09.476Z,89.31
2022-11-05T06:33:11.845Z,89.40
2022-11-05T06:34:14.283Z,89.44
2022-11-05T06:35:17.185Z,89.25
2022-11-05T06:36:22.456Z,89.17
2022-11-05T06:37:24.944Z,89.28
2022-11-05T06:38:27.660Z,89.28
2022-11-05T06:39:29.972Z,89.18
2022-11-05T06:40:36.714Z,89.18
2022-11-05T06:43:03.378Z,88.67
2022-11-05T06:44:05.738Z,88.47
2022-11-05T06:45:11.550Z,88.57
2022-11-05T06:46:13.881Z,88.26
2022-11-05T06:47:19.948Z,88.09
2022-11-05T06:48:22.526Z,87.78
2022-11-05T06:49:25.646Z,87.71
2022-11-05T06:50:29.074Z,87.78
2022-11-05T06:51:33.337Z,87.93
2022-11-05T06:52:41.242Z,88.01
2022-11-05T06:53:43.911Z,88.05
2022-11-05T06:54:46.358Z,87.86
2022-11-05T06:55:52.064Z,87.72
2022-11-05T06:56:55.007Z,87.65
2022-11-05T06:57:58.069Z,87.98
2022-11-05T06:59:00.428Z,88.21
2022-11-05T07:00:07.630Z,88.25
2022-11-05T07:01:10.811Z,88.10
2022-11-05T07:02:13.896Z,87.84
2022-11-05T07:03:16.270Z,88.00
2022-11-05T07:04:18.478Z,88.08
2022-11-05T07:05:22.928Z,88.21
2022-11-05T07:06:25.160Z,88.12
2022-11-05T07:07:27.552Z,88.26
2022-11-05T07:08:34.221Z,88.03
2022-11-05T07:09:42.506Z,87.76
2022-11-05T07:10:44.942Z,87.89
2022-11-05T07:11:47.124Z,87.97
2022-11-05T07:12:49.533Z,87.66
2022-11-05T07:13:51.731Z,87.58
2022-11-05T07:14:54.109Z,87.63
2022-11-05T07:15:56.805Z,87.51
2022-11-05T07:16:58.986Z,87.78
2022-11-05T07:18:02.130Z,87.94
2022-11-05T07:19:04.863Z,88.06
2022-11-05T07:20:08.267Z,88.03
2022-11-05T07:21:10.629Z,87.85
2022-11-05T07:22:12.844Z,87.66
2022-11-05T07:23:16.096Z,87.96
2022-11-05T07:24:18.547Z,88.32
2022-11-05T07:25:23.563Z,88.49
2022-11-05T07:26:31.900Z,88.48
2022-11-05T07:27:40.236Z,88.43
2022-11-05T07:28:42.524Z,88.26
2022-11-05T07:29:44.964Z,88.32
2022-11-05T07:30:48.362Z,88.34
2022-11-05T07:31:51.047Z,88.16
2022-11-05T07:32:53.488Z,88.11
2022-11-05T07:33:56.103Z,87.91
2022-11-05T07:34:58.260Z,87.88
2022-11-05T07:36:00.682Z,87.86
2022-11-05T07:37:02.945Z,87.87
2022-11-05T07:38:05.143Z,87.83
2022-11-05T07:39:07.567Z,87.63
2022-11-05T07:40:11.523Z,87.55
2022-11-05T07:41:13.898Z,87.43
2022-11-05T07:42:16.082Z,87.22
2022-11-05T07:43:18.374Z,87.09
2022-11-05T07:44:23.891Z,86.54
2022-11-05T07:45:28.769Z,86.42
2022-11-05T07:46:31.679Z,86.52
2022-11-05T07:47:36.241Z,86.69
2022-11-05T07:48:38.594Z,86.80
2022-11-05T07:49:41.113Z,86.73
2022-11-05T07:50:43.333Z,87.11
2022-11-05T07:51:45.898Z,87.43
2022-11-05T07:52:48.975Z,87.17
2022-11-05T07:53:51.241Z,87.02
2022-11-05T07:54:53.593Z,86.68
2022-11-05T07:55:57.192Z,86.50
2022-11-05T07:56:59.823Z,85.82
2022-11-05T07:58:02.685Z,85.69
2022-11-05T07:59:05.217Z,85.94
2022-11-05T08:00:09.153Z,86.07
2022-11-05T08:01:14.756Z,85.88
2022-11-05T08:02:17.262Z,85.01
2022-11-05T08:03:20.293Z,85.21
2022-11-05T08:04:22.859Z,85.95
2022-11-05T08:05:25.152Z,85.92
2022-11-05T08:06:27.700Z,86.08
2022-11-05T08:07:30.095Z,86.21
2022-11-05T08:08:35.626Z,86.29
2022-11-05T08:09:38.066Z,86.42
2022-11-05T08:10:45.328Z,86.50
2022-11-05T08:11:52.933Z,87.06
2022-11-05T08:12:56.393Z,86.92
2022-11-05T08:13:58.589Z,87.11
2022-11-05T08:15:01.014Z,87.02
2022-11-05T08:16:04.566Z,86.63
2022-11-05T08:17:10.751Z,86.35
2022-11-05T08:18:16.441Z,85.88
2022-11-05T08:19:18.685Z,85.50
2022-11-05T08:20:21.057Z,85.57
2022-11-05T08:21:25.321Z,85.33
2022-11-05T08:22:27.764Z,84.38
2022-11-05T08:23:32.171Z,83.74
2022-11-05T08:24:34.336Z,83.42
2022-11-05T08:25:37.066Z,83.24
2022-11-05T08:26:39.246Z,82.28
2022-11-05T08:27:41.647Z,81.23
2022-11-05T08:28:43.983Z,81.01
2022-11-05T08:29:46.139Z,81.42
2022-11-05T08:30:50.322Z,81.66
2022-11-05T08:31:52.685Z,81.54
2022-11-05T08:33:00.168Z,81.50
2022-11-05T08:34:03.000Z,81.86
2022-11-05T08:35:05.943Z,81.85
2022-11-05T08:36:08.162Z,81.85
2022-11-05T08:37:10.530Z,81.85
2022-11-05T08:38:15.540Z,81.81
2022-11-05T08:39:18.964Z,81.87
2022-11-05T08:40:21.168Z,81.73
2022-11-05T08:41:23.772Z,81.82
2022-11-05T08:42:26.194Z,81.70
2022-11-05T08:43:28.476Z,81.51
2022-11-05T08:44:30.829Z,81.24
2022-11-05T08:45:34.454Z,81.56
2022-11-05T08:46:41.456Z,81.86
2022-11-05T08:47:44.242Z,81.89
2022-11-05T08:48:46.419Z,81.72
2022-11-05T08:49:48.619Z,82.24
2022-11-05T08:50:51.046Z,82.23
2022-11-05T08:51:53.326Z,82.05
2022-11-05T08:52:55.909Z,81.96
2022-11-05T08:53:58.201Z,81.93
2022-11-05T08:55:01.069Z,82.21
2022-11-05T08:56:03.300Z,82.22
2022-11-05T08:57:05.507Z,82.53
2022-11-05T08:58:12.804Z,82.42
2022-11-05T08:59:15.021Z,82.45
2022-11-05T09:00:18.166Z,82.31
2022-11-05T09:01:20.520Z,82.76
2022-11-05T09:02:23.019Z,83.42
2022-11-05T09:03:25.507Z,83.31
2022-11-05T09:04:27.764Z,83.76
2022-11-05T09:05:31.551Z,83.81
2022-11-05T09:06:35.723Z,83.75
2022-11-05T09:07:38.285Z,83.73
2022-11-05T09:08:41.384Z,83.20
2022-11-05T09:09:43.729Z,82.83
2022-11-05T09:10:47.747Z,82.53
2022-11-05T09:12:11.140Z,81.93
2022-11-05T09:13:18.254Z,81.03
2022-11-05T09:14:21.424Z,79.75
2022-11-05T09:15:27.931Z,78.55
2022-11-05T09:16:32.572Z,77.69
2022-11-05T09:17:34.813Z,77.31
2022-11-05T09:18:39.166Z,76.59
2022-11-05T09:19:41.345Z,76.50
2022-11-05T09:20:43.823Z,76.31
2022-11-05T09:21:46.233Z,76.27
2022-11-05T09:22:48.664Z,75.86
2022-11-05T09:23:51.148Z,76.48
2022-11-05T09:24:53.415Z,76.23
2022-11-05T09:25:55.693Z,76.25
2022-11-05T09:26:58.157Z,76.28
2022-11-05T09:28:31.678Z,75.63
2022-11-05T09:29:33.994Z,75.35
2022-11-05T09:30:40.340Z,74.84
2022-11-05T09:31:42.865Z,74.96
2022-11-05T09:32:45.059Z,75.18
2022-11-05T09:33:47.531Z,74.96
2022-11-05T09:34:50.120Z,75.55
2022-11-05T09:35:53.520Z,75.81
2022-11-05T09:36:57.086Z,75.97
2022-11-05T09:38:01.096Z,75.84
2022-11-05T09:39:03.801Z,75.33
2022-11-05T09:40:07.086Z,74.85
2022-11-05T09:41:20.986Z,74.32
2022-11-05T09:42:29.377Z,73.56
2022-11-05T09:44:00.937Z,73.45
2022-11-05T09:45:09.268Z,73.72
2022-11-05T09:46:24.095Z,73.45
2022-11-05T09:47:33.196Z,73.37
2022-11-05T09:48:38.093Z,72.34
2022-11-05T09:49:44.257Z,71.88
2022-11-05T09:50:46.567Z,71.69
2022-11-05T09:51:49.047Z,71.40
2022-11-05T09:52:51.528Z,71.46
2022-11-05T09:53:54.292Z,72.80
2022-11-05T09:55:01.810Z,73.82
2022-11-05T09:56:04.539Z,73.69
2022-11-05T09:57:15.823Z,74.11
2022-11-05T09:58:28.513Z,74.28
2022-11-05T09:59:50.844Z,74.48
2022-11-05T10:00:53.399Z,74.70
2022-11-05T10:02:04.197Z,74.92
2022-11-05T10:03:10.796Z,74.54
2022-11-05T10:04:21.485Z,74.34
2022-11-05T10:05:26.195Z,74.24
2022-11-05T10:06:29.467Z,73.99
2022-11-05T10:07:41.171Z,73.97
2022-11-05T10:08:47.362Z,73.76
2022-11-05T10:09:53.797Z,73.79
2022-11-05T10:11:22.166Z,74.48
2022-11-05T10:12:30.504Z,74.17
2022-11-05T10:14:02.423Z,73.63
2022-11-05T10:15:17.205Z,73.09
2022-11-05T10:16:39.013Z,72.38
2022-11-05T10:17:48.974Z,71.74
2022-11-05T10:19:06.348Z,71.66
2022-11-05T10:20:11.530Z,71.74
2022-11-05T10:21:32.287Z,72.35
2022-11-05T10:22:43.963Z,72.66
2022-11-05T10:23:50.565Z,72.20
2022-11-05T10:24:55.077Z,72.42
2022-11-05T10:26:02.974Z,72.12
2022-11-05T10:27:05.552Z,72.02
2022-11-05T10:28:09.948Z,71.89
2022-11-05T10:29:16.429Z,71.82
2022-11-05T10:30:19.782Z,71.27
2022-11-05T10:31:23.395Z,71.47
2022-11-05T10:32:34.218Z,71.51
2022-11-05T10:33:51.504Z,70.40
2022-11-05T10:34:58.516Z,70.61
2022-11-05T10:36:07.227Z,70.86
2022-11-05T10:37:10.389Z,70.63
2022-11-05T10:38:15.641Z,70.92
2022-11-05T10:39:20.111Z,71.76
2022-11-05T10:40:49.792Z,72.14
2022-11-05T10:41:57.898Z,71.59
2022-11-05T10:43:10.521Z,71.46
2022-11-05T10:44:39.087Z,71.12
2022-11-05T10:45:59.485Z,71.69
2022-11-05T10:47:42.948Z,71.74
2022-11-05T10:48:45.184Z,71.97
2022-11-05T10:50:17.063Z,72.03
2022-11-05T10:51:19.747Z,71.68
2022-11-05T10:52:30.757Z,71.65
2022-11-05T10:53:35.186Z,71.13
2022-11-05T10:54:37.531Z,70.91
2022-11-05T10:55:46.279Z,70.60
2022-11-05T10:56:49.085Z,70.71
2022-11-05T10:57:52.661Z,70.89
2022-11-05T10:58:57.277Z,70.89
2022-11-05T11:00:18.092Z,70.50
2022-11-05T11:01:27.540Z,70.01
2022-11-05T11:02:30.485Z,70.10
2022-11-05T11:03:51.192Z,70.07
2022-11-05T11:04:58.445Z,70.12
2022-11-05T11:06:07.283Z,69.91
2022-11-05T11:07:38.872Z,68.30
2022-11-05T11:08:45.570Z,67.76
2022-11-05T11:09:49.990Z,67.62
2022-11-05T11:10:58.714Z,68.03
2022-11-05T11:12:04.396Z,68.08
2022-11-05T11:13:08.445Z,67.98
2022-11-05T11:14:13.464Z,68.06
2022-11-05T11:15:27.792Z,67.96
2022-11-05T11:16:35.886Z,67.85
2022-11-05T11:17:38.217Z,67.52
2022-11-05T11:18:43.634Z,67.81
2022-11-05T11:19:47.138Z,68.59
2022-11-05T11:20:49.448Z,69.26
2022-11-05T11:22:03.211Z,69.25
2022-11-05T11:23:12.921Z,69.00
2022-11-05T11:24:26.069Z,69.36
2022-11-05T11:25:41.975Z,69.79
2022-11-05T11:26:44.601Z,69.86
2022-11-05T11:27:47.343Z,69.54
2022-11-05T11:29:07.598Z,69.97
2022-11-05T11:30:18.551Z,70.18
2022-11-05T11:31:24.224Z,70.24
2022-11-05T11:32:47.608Z,70.07
2022-11-05T11:33:55.880Z,70.26
2022-11-05T11:34:58.536Z,70.56
2022-11-05T11:36:05.144Z,70.69
2022-11-05T11:37:19.354Z,70.81
2022-11-05T11:38:23.237Z,71.11
2022-11-05T11:39:29.073Z,71.23
2022-11-05T11:40:38.356Z,71.59
2022-11-05T11:41:44.075Z,71.30
2022-11-05T11:42:51.053Z,71.42
2022-11-05T11:44:04.716Z,70.96
2022-11-05T11:45:29.876Z,71.00
2022-11-05T11:46:34.714Z,70.59
2022-11-05T11:47:44.224Z,70.31
2022-11-05T11:48:48.808Z,70.79
2022-11-05T11:49:54.636Z,71.54
2022-11-05T11:51:01.876Z,71.77
2022-11-05T11:52:10.917Z,71.39
2022-11-05T11:53:20.005Z,70.70
2022-11-05T11:54:28.960Z,70.26
2022-11-05T11:55:31.722Z,70.27
2022-11-05T11:56:44.885Z,69.84
2022-11-05T11:57:52.769Z,69.75
2022-11-05T11:58:57.793Z,69.52
2022-11-05T12:00:09.206Z,69.54
2022-11-05T12:01:12.054Z,69.17
2022-11-05T12:02:20.614Z,69.33
2022-11-05T12:03:39.227Z,68.97
2022-11-05T12:04:55.594Z,68.87
2022-11-05T12:06:24.356Z,68.52
2022-11-05T12:07:39.578Z,68.18
2022-11-05T12:09:06.732Z,67.59
2022-11-05T12:10:18.903Z,67.82
2022-11-05T12:11:34.221Z,67.79
2022-11-05T12:13:13.912Z,66.72
2022-11-05T12:14:46.620Z,66.61
2022-11-05T12:16:17.393Z,66.89
2022-11-05T12:18:01.687Z,67.90
2022-11-05T12:19:24.972Z,68.89
2022-11-05T12:20:41.882Z,69.44
2022-11-05T12:22:10.912Z,69.78
2022-11-05T12:23:19.174Z,69.50
2022-11-05T12:24:21.897Z,69.37
2022-11-05T12:25:30.636Z,69.46
2022-11-05T12:27:01.498Z,68.80
2022-11-05T12:28:22.416Z,69.17
2022-11-05T12:29:36.954Z,69.29
2022-11-05T12:31:00.652Z,68.50
2022-11-05T12:32:21.808Z,68.50
2022-11-05T12:33:27.168Z,68.63
2022-11-05T12:34:35.286Z,68.58
2022-11-05T12:35:57.605Z,68.59
2022-11-05T12:37:15.344Z,68.97
2022-11-05T12:38:35.213Z,68.90
2022-11-05T12:39:43.532Z,69.27
2022-11-05T12:41:16.839Z,68.79
2022-11-05T12:42:50.935Z,69.04
2022-11-05T12:44:08.283Z,69.34
2022-11-05T12:45:44.941Z,69.71
2022-11-05T12:47:08.940Z,68.98
2022-11-05T12:48:57.479Z,68.32
2022-11-05T12:50:17.911Z,68.09
2022-11-05T12:51:25.103Z,67.75
2022-11-05T12:53:01.139Z,67.81
2022-11-05T12:54:25.071Z,67.61
2022-11-05T12:55:32.726Z,67.50
2022-11-05T12:56:47.564Z,67.51
2022-11-05T12:57:54.697Z,67.15
2022-11-05T12:59:31.896Z,67.42
2022-11-05T13:00:35.962Z,67.26
2022-11-05T13:01:46.108Z,67.91
2022-11-05T13:03:15.295Z,67.57
2022-11-05T13:04:32.640Z,66.96
2022-11-05T13:05:42.190Z,66.68
2022-11-05T13:06:48.520Z,67.03
2022-11-05T13:08:00.410Z,67.37
2022-11-05T13:09:25.868Z,67.45
2022-11-05T13:10:36.672Z,67.44
2022-11-05T13:11:42.386Z,67.05
2022-11-05T13:12:49.229Z,66.85
2022-11-05T13:14:18.539Z,66.98
2022-11-05T13:15:35.958Z,67.35
2022-11-05T13:16:46.588Z,67.53
2022-11-05T13:18:04.678Z,67.61
2022-11-05T13:19:26.267Z,67.49
2022-11-05T13:20:37.701Z,67.36
2022-11-05T13:21:43.872Z,67.48
2022-11-05T13:22:50.803Z,67.66
2022-11-05T13:24:05.999Z,67.54
2022-11-05T13:25:21.464Z,67.35
2022-11-05T13:26:43.659Z,66.95
2022-11-05T13:28:10.789Z,67.18
2022-11-05T13:29:26.136Z,67.01
2022-11-05T13:30:37.596Z,67.10
2022-11-05T13:31:45.637Z,66.98
2022-11-05T13:33:06.434Z,67.26
2022-11-05T13:34:12.779Z,67.42
2022-11-05T13:35:20.384Z,67.60
2022-11-05T13:36:52.865Z,67.74
2022-11-05T13:38:22.329Z,67.93
2022-11-05T13:39:30.160Z,67.01
2022-11-05T13:41:21.426Z,66.93
2022-11-05T13:42:41.939Z,65.95
2022-11-05T13:43:59.325Z,65.75
2022-11-05T13:45:22.565Z,65.97
2022-11-05T13:46:49.095Z,66.28
2022-11-05T13:48:19.222Z,66.30
2022-11-05T13:49:24.292Z,66.89
2022-11-05T13:50:54.305Z,66.69
2022-11-05T13:52:44.671Z,66.90
2022-11-05T13:54:01.832Z,66.73
2022-11-05T13:55:31.160Z,66.62
2022-11-05T13:57:18.126Z,66.69
2022-11-05T13:58:32.202Z,66.79
2022-11-05T14:00:03.686Z,67.69
2022-11-05T14:01:24.631Z,67.83
2022-11-05T14:02:35.910Z,67.23
2022-11-05T14:03:45.193Z,67.13
2022-11-05T14:04:54.429Z,66.97
2022-11-05T14:06:06.994Z,66.98
2022-11-05T14:07:15.602Z,66.90
2022-11-05T14:08:21.180Z,66.81
2022-11-05T14:09:27.272Z,66.82
2022-11-05T14:10:41.712Z,67.43
2022-11-05T14:11:52.146Z,67.60
2022-11-05T14:12:57.087Z,67.53
2022-11-05T14:14:17.560Z,67.60
2022-11-05T14:15:30.937Z,67.92
2022-11-05T14:16:54.391Z,67.51
2022-11-05T14:18:27.120Z,67.38
2022-11-05T14:19:34.502Z,67.31
2022-11-05T14:20:46.392Z,67.31
2022-11-05T14:21:56.697Z,67.38
2022-11-05T14:23:17.997Z,67.70
2022-11-05T14:24:23.407Z,67.64
2022-11-05T14:25:45.501Z,67.83
2022-11-05T14:27:02.788Z,67.63
2022-11-05T14:28:36.827Z,67.29
2022-11-05T14:29:43.029Z,67.51
2022-11-05T14:30:47.648Z,67.39
2022-11-05T14:32:09.529Z,67.63
2022-11-05T14:33:37.692Z,67.18
2022-11-05T14:34:54.636Z,67.39
2022-11-05T14:36:28.255Z,67.46
2022-11-05T14:37:36.921Z,67.18
2022-11-05T14:38:46.922Z,67.63
2022-11-05T14:39:50.014Z,67.46
2022-11-05T14:41:03.002Z,67.11
2022-11-05T14:42:23.305Z,67.21
2022-11-05T14:43:28.305Z,67.31
2022-11-05T14:44:34.460Z,67.59
2022-11-05T14:45:40.668Z,67.75
2022-11-05T14:46:49.005Z,68.02
2022-11-05T14:48:04.268Z,68.60
2022-11-05T14:49:09.619Z,68.52
2022-11-05T14:50:20.719Z,68.19
2022-11-05T14:51:44.168Z,67.44
2022-11-05T14:53:00.514Z,67.60
2022-11-05T14:54:18.891Z,67.62
2022-11-05T14:55:31.445Z,67.56